.
WxDataArchive / Data Records for 2006-12-22
2006-12-21 December 2006 2006-12-23

Data Records for Friday, 22 December 2006

Time	Temp	Chill	HIndex	Humid	Dewpt	 Wind 	HiWind	WindDir	Rain 	Barom 
-----	----	-----	------	-----	-----	------	------	-------	-----	----- 
00:00	46.2	46.2	46.2	99	45.9	0	1	90	0.00	30.008 
00:05	46.4	46.4	46.4	99	46.1	0	2	90	0.00	30.008 
00:10	46.4	46.4	46.4	99	46.1	1	3	90	0.00	30.008 
00:15	46.4	46.4	46.4	99	46.1	1	3	112	0.00	30.005 
00:20	46.4	46.4	46.4	99	46.1	1	2	90	0.00	30.005 
00:25	46.5	46.5	46.5	99	46.2	1	3	112	0.00	30.005 
00:30	46.5	46.5	46.5	99	46.2	1	3	112	0.00	29.996 
00:35	46.5	46.5	46.5	99	46.2	1	2	112	0.00	29.996 
00:40	46.7	46.7	46.7	99	46.4	1	4	90	0.00	29.996 
00:45	46.7	46.7	46.7	99	46.4	1	2	90	0.00	29.995 
00:50	46.7	46.7	46.7	99	46.4	1	3	90	0.00	29.995 
00:55	46.8	46.8	46.8	99	46.5	1	2	90	0.00	29.995 
01:00	47.0	47.0	47.0	99	46.7	1	2	90	0.00	29.983 
01:05	47.0	47.0	47.0	99	46.7	1	3	90	0.00	29.983 
01:10	47.1	47.1	47.1	99	46.8	1	3	90	0.00	29.983 
01:15	47.1	47.1	47.1	99	46.8	1	2	90	0.00	29.978 
01:20	47.3	47.3	47.3	99	47.0	1	2	90	0.00	29.978 
01:25	47.3	47.3	47.3	99	47.0	0	2	90	0.00	29.978 
01:30	47.3	47.3	47.3	99	47.0	1	2	90	0.00	29.972 
01:35	47.3	47.3	47.3	99	47.0	1	2	90	0.00	29.972 
01:40	47.4	47.4	47.4	99	47.1	1	2	90	0.01	29.972 
01:45	47.4	47.4	47.4	99	47.1	1	2	90	0.01	29.969 
01:50	47.6	47.6	47.6	99	47.3	1	3	90	0.00	29.969 
01:55	47.7	47.7	47.7	99	47.4	1	2	90	0.00	29.969 
02:00	47.7	47.7	47.7	99	47.4	1	2	90	0.00	29.957 
02:05	47.9	47.9	47.9	99	47.6	0	2	90	0.00	29.957 
02:10	48.0	48.0	48.0	99	47.7	0	1	90	0.00	29.957 
02:15	48.2	48.2	48.2	99	47.9	0	2	90	0.00	29.957 
02:20	48.3	48.3	48.3	99	48.0	0	1	90	0.00	29.957 
02:25	48.5	48.5	48.5	99	48.2	0	1	90	0.00	29.957 
02:30	48.5	48.5	48.5	99	48.2	0	1	90	0.01	29.957 
02:35	48.8	48.8	48.8	99	48.5	0	2	90	0.00	29.957 
02:40	48.8	48.8	48.8	99	48.5	0	1	90	0.00	29.957 
02:45	48.9	48.9	48.9	99	48.6	0	1	90	0.00	29.956 
02:50	48.9	48.9	48.9	99	48.6	0	1	90	0.00	29.956 
02:55	48.9	48.9	48.9	99	48.6	0	1	90	0.00	29.956 
03:00	49.1	49.1	49.1	99	48.8	0	1	90	0.00	29.957 
03:05	49.2	49.2	49.2	99	48.9	1	2	90	0.00	29.957 
03:10	49.2	49.2	49.2	99	48.9	0	1	90	0.00	29.957 
03:15	49.4	49.4	49.4	99	49.1	0	1	90	0.00	29.954 
03:20	49.5	49.5	49.5	99	49.2	0	2	90	0.01	29.954 
03:25	49.8	49.8	49.8	99	49.5	1	2	90	0.00	29.954 
03:30	49.9	49.9	49.9	99	49.6	0	2	112	0.00	29.950 
03:35	50.1	50.1	50.1	99	49.8	0	2	112	0.00	29.950 
03:40	50.4	50.4	50.4	99	50.1	1	2	112	0.00	29.950 
03:45	50.5	50.5	50.5	99	50.2	1	3	112	0.00	29.933 
03:50	50.7	50.7	50.7	99	50.4	1	3	112	0.00	29.933 
03:55	50.8	50.8	50.8	99	50.5	1	3	112	0.00	29.933 
04:00	51.0	51.0	51.0	99	50.7	1	3	112	0.00	29.925 
04:05	51.1	51.1	51.1	99	50.8	1	4	135	0.00	29.925 
04:10	51.3	51.3	51.3	99	51.0	1	3	112	0.00	29.925 
04:15	51.4	51.4	51.4	99	51.1	1	4	112	0.00	29.922 
04:20	51.4	51.4	51.4	99	51.1	1	3	112	0.00	29.922 
04:25	51.6	51.6	51.6	99	51.3	1	3	135	0.00	29.922 
04:30	51.4	51.4	51.4	99	51.1	1	3	112	0.00	29.915 
04:35	51.4	51.4	51.4	99	51.1	1	4	112	0.00	29.915 
04:40	51.4	51.4	51.4	99	51.1	1	2	112	0.00	29.915 
04:45	51.4	51.4	51.4	99	51.1	1	3	112	0.00	29.907 
04:50	51.4	51.4	51.4	99	51.1	1	4	135	0.00	29.907 
04:55	51.4	51.4	51.4	99	51.1	1	3	135	0.00	29.907 
05:00	51.6	51.6	51.6	99	51.3	1	4	112	0.00	29.905 
05:05	51.6	51.6	51.6	100	51.6	1	2	90	0.00	29.905 
05:10	51.6	51.6	51.6	100	51.6	1	3	112	0.00	29.905 
05:15	51.6	51.6	51.6	100	51.6	1	3	135	0.00	29.896 
05:20	51.4	51.4	51.4	100	51.4	1	3	135	0.00	29.896 
05:25	51.6	51.6	51.6	100	51.6	1	3	112	0.00	29.896 
05:30	51.6	51.6	51.6	100	51.6	1	3	112	0.00	29.889 
05:35	51.6	51.6	51.6	100	51.6	1	3	135	0.00	29.889 
05:40	51.6	51.6	51.6	100	51.6	1	2	112	0.00	29.889 
05:45	51.6	51.6	51.6	100	51.6	1	2	135	0.00	29.877 
05:50	51.6	51.6	51.6	100	51.6	1	3	135	0.00	29.877 
05:55	51.7	51.7	51.7	100	51.7	2	4	135	0.00	29.877 
06:00	51.7	51.7	51.7	100	51.7	1	2	180	0.00	29.874 
06:05	51.9	51.9	51.9	100	51.9	1	3	135	0.00	29.874 
06:10	51.9	51.9	51.9	100	51.9	1	3	112	0.01	29.874 
06:15	51.9	51.9	51.9	100	51.9	1	3	112	0.00	29.874 
06:20	52.0	52.0	52.0	100	52.0	2	4	112	0.00	29.874 
06:25	52.2	52.2	52.2	100	52.2	2	5	112	0.00	29.874 
06:30	52.0	52.0	52.0	100	52.0	1	3	135	0.00	29.860 
06:35	52.0	52.0	52.0	100	52.0	1	3	135	0.00	29.860 
06:40	52.0	52.0	52.0	100	52.0	1	3	90	0.00	29.860 
06:45	52.0	52.0	52.0	100	52.0	1	3	90	0.00	29.858 
06:50	52.0	52.0	52.0	100	52.0	2	3	112	0.00	29.858 
06:55	52.0	52.0	52.0	100	52.0	2	6	112	0.00	29.858 
07:00	52.0	52.0	52.0	100	52.0	3	9	112	0.00	29.839 
07:05	52.2	52.2	52.2	100	52.2	4	7	112	0.00	29.839 
07:10	52.2	52.2	52.2	100	52.2	3	6	112	0.00	29.839 
07:15	52.2	52.2	52.2	100	52.2	2	4	112	0.00	29.826 
07:20	52.2	52.2	52.2	100	52.2	3	7	112	0.00	29.826 
07:25	52.3	52.3	52.3	100	52.3	3	8	112	0.00	29.826 
07:30	52.3	52.3	52.3	100	52.3	2	5	112	0.00	29.808 
07:35	52.3	52.3	52.3	100	52.3	2	10	112	0.00	29.808 
07:40	52.3	52.3	52.3	100	52.3	2	4	112	0.00	29.808 
07:45	52.5	52.5	52.5	100	52.5	1	4	135	0.00	29.814 
07:50	52.5	52.5	52.5	100	52.5	2	5	112	0.00	29.814 
07:55	52.5	52.5	52.5	100	52.5	2	5	90	0.00	29.814 
08:00	52.5	52.5	52.5	100	52.5	1	6	90	0.00	29.807 
08:05	52.5	52.5	52.5	100	52.5	2	5	90	0.00	29.807 
08:10	52.5	52.5	52.5	100	52.5	2	4	135	0.00	29.807 
08:15	52.5	52.5	52.5	100	52.5	2	6	112	0.00	29.792 
08:20	52.5	52.5	52.5	100	52.5	3	7	90	0.00	29.792 
08:25	52.5	52.5	52.5	100	52.5	2	5	112	0.00	29.792 
08:30	52.5	52.5	52.5	100	52.5	3	7	112	0.00	29.790 
08:35	52.5	52.5	52.5	100	52.5	3	5	90	0.00	29.790 
08:40	52.5	52.5	52.5	100	52.5	2	5	90	0.00	29.790 
08:45	52.6	52.6	52.6	100	52.6	2	9	112	0.00	29.788 
08:50	52.8	52.8	52.8	100	52.8	3	10	112	0.00	29.788 
08:55	52.8	52.8	52.8	99	52.5	1	4	135	0.00	29.788 
09:00	52.8	52.8	52.8	99	52.5	2	5	112	0.00	29.791 
09:05	52.9	52.9	52.9	99	52.6	2	6	90	0.00	29.791 
09:10	52.9	52.9	52.9	99	52.6	2	7	112	0.00	29.791 
09:15	53.1	53.1	53.1	99	52.8	3	10	112	0.01	29.794 
09:20	53.1	53.1	53.1	98	52.5	3	10	112	0.01	29.794 
09:25	53.1	53.1	53.1	98	52.5	3	7	112	0.00	29.794 
09:30	53.1	53.1	53.1	98	52.5	3	7	112	0.00	29.789 
09:35	53.1	53.1	53.1	98	52.5	2	4	112	0.00	29.789 
09:40	53.1	53.1	53.1	97	52.3	2	5	90	0.00	29.789 
09:45	53.1	53.1	53.1	97	52.3	2	6	112	0.01	29.769 
09:50	53.1	53.1	53.1	97	52.3	3	10	90	0.00	29.769 
09:55	53.2	53.2	53.2	95	51.8	3	6	112	0.00	29.769 
10:00	53.2	53.2	53.2	97	52.4	3	6	90	0.00	29.772 
10:05	53.2	53.2	53.2	97	52.4	3	7	90	0.00	29.772 
10:10	53.3	53.3	53.3	97	52.5	4	9	112	0.00	29.772 
10:15	53.5	53.5	53.5	97	52.7	3	7	112	0.00	29.765 
10:20	53.5	53.5	53.5	97	52.7	3	6	90	0.00	29.765 
10:25	53.6	53.6	53.6	97	52.8	3	6	90	0.00	29.765 
10:30	53.6	53.6	53.6	97	52.8	4	9	112	0.00	29.757 
10:35	53.8	53.8	53.8	96	52.7	3	8	90	0.00	29.757 
10:40	53.9	53.9	53.9	96	52.8	3	6	112	0.00	29.757 
10:45	53.9	53.9	53.9	96	52.8	3	7	90	0.01	29.745 
10:50	53.9	53.9	53.9	96	52.8	3	7	90	0.01	29.745 
10:55	54.1	54.1	54.1	97	53.3	2	5	90	0.00	29.745 
11:00	54.1	54.1	54.1	97	53.3	3	7	90	0.00	29.741 
11:05	54.1	54.1	54.1	96	53.0	3	10	68	0.00	29.741 
11:10	54.2	54.2	54.2	96	53.1	3	6	112	0.00	29.741 
11:15	54.2	54.2	54.2	96	53.1	3	10	90	0.00	29.734 
11:20	54.4	54.4	54.4	96	53.3	3	8	112	0.00	29.734 
11:25	54.4	54.4	54.4	96	53.3	3	8	90	0.01	29.734 
11:30	54.5	54.5	54.5	96	53.4	3	6	90	0.00	29.721 
11:35	54.7	54.7	54.7	96	53.6	3	10	90	0.00	29.721 
11:40	54.7	54.7	54.7	96	53.6	3	7	90	0.00	29.721 
11:45	54.8	54.8	54.8	95	53.4	3	7	90	0.00	29.709 
11:50	55.0	55.0	55.0	95	53.6	3	6	90	0.01	29.709 
11:55	55.0	55.0	55.0	95	53.6	3	9	90	0.00	29.709 
12:00	55.0	55.0	55.0	95	53.6	3	7	90	0.00	29.697 
12:05	55.1	55.1	55.1	95	53.7	4	10	112	0.00	29.697 
12:10	55.3	55.3	55.3	94	53.6	5	11	90	0.00	29.697 
12:15	55.3	55.3	55.3	94	53.6	4	11	90	0.00	29.691 
12:20	55.4	55.4	55.4	94	53.7	4	8	90	0.00	29.691 
12:25	55.4	55.4	55.4	94	53.7	4	10	90	0.00	29.691 
12:30	55.4	55.4	55.4	94	53.7	3	11	90	0.00	29.678 
12:35	55.4	55.4	55.4	95	54.0	4	10	112	0.01	29.678 
12:40	55.4	55.4	55.4	95	54.0	4	11	90	0.00	29.678 
12:45	55.6	55.6	55.6	95	54.2	4	11	90	0.01	29.665 
12:50	55.6	55.6	55.6	95	54.2	4	10	90	0.00	29.665 
12:55	55.6	55.6	55.6	95	54.2	4	7	90	0.00	29.665 
13:00	55.6	55.6	55.6	94	53.9	4	14	90	0.00	29.658 
13:05	55.7	55.7	55.7	94	54.0	4	10	90	0.00	29.658 
13:10	55.7	55.7	55.7	94	54.0	3	6	112	0.00	29.658 
13:15	55.7	55.7	55.7	94	54.0	4	9	90	0.00	29.651 
13:20	55.6	55.6	55.6	95	54.2	4	8	90	0.00	29.651 
13:25	55.6	55.6	55.6	95	54.2	4	9	90	0.00	29.651 
13:30	55.7	55.7	55.7	95	54.3	3	11	90	0.00	29.645 
13:35	55.7	55.7	55.7	95	54.3	4	9	112	0.00	29.645 
13:40	55.7	55.7	55.7	95	54.3	3	7	90	0.00	29.645 
13:45	55.7	55.7	55.7	95	54.3	3	6	90	0.00	29.643 
13:50	55.6	55.6	55.6	95	54.2	2	7	68	0.00	29.643 
13:55	55.6	55.6	55.6	95	54.2	3	6	68	0.01	29.643 
14:00	55.6	55.6	55.6	96	54.5	4	7	270	0.01	29.647 
14:05	55.3	55.3	55.3	95	53.9	6	18	248	0.00	29.647 
14:10	55.0	55.0	55.0	93	53.0	4	8	248	0.00	29.647 
14:15	54.7	54.7	54.7	92	52.4	6	13	248	0.00	29.659 
14:20	54.4	54.4	54.4	91	51.8	5	10	248	0.00	29.659 
14:25	54.2	54.2	54.2	91	51.6	4	12	248	0.00	29.659 
14:30	54.1	54.1	54.1	92	51.8	3	9	248	0.00	29.666 
14:35	53.8	53.8	53.8	91	51.2	4	10	248	0.00	29.666 
14:40	53.3	53.3	53.3	89	50.1	3	7	248	0.00	29.666 
14:45	52.8	52.8	52.8	87	49.0	4	12	248	0.01	29.666 
14:50	52.2	52.2	52.2	85	47.8	5	12	248	0.00	29.666 
14:55	52.0	52.0	52.0	84	47.3	4	9	270	0.00	29.666 
15:00	51.9	51.9	51.9	85	47.5	4	7	248	0.00	29.667 
15:05	51.9	51.9	51.9	86	47.8	4	7	248	0.00	29.667 
15:10	51.9	51.9	51.9	86	47.8	4	10	248	0.00	29.667 
15:15	51.9	51.9	51.9	87	48.2	3	7	248	0.00	29.664 
15:20	52.0	52.0	52.0	88	48.6	3	6	248	0.00	29.664 
15:25	52.3	52.3	52.3	88	48.9	3	7	248	0.00	29.664 
15:30	52.5	52.5	52.5	87	48.7	3	7	248	0.00	29.669 
15:35	52.8	52.8	52.8	86	48.7	3	8	248	0.00	29.669 
15:40	52.9	52.9	52.9	83	47.9	7	17	248	0.00	29.669 
15:45	53.3	53.3	53.3	81	47.6	6	16	248	0.00	29.677 
15:50	53.5	53.5	53.5	79	47.1	5	15	248	0.00	29.677 
15:55	53.3	53.3	53.3	79	47.0	5	12	248	0.00	29.677 
16:00	53.2	53.2	53.2	77	46.2	6	11	248	0.00	29.683 
16:05	53.1	53.1	53.1	77	46.1	5	13	248	0.00	29.683 
16:10	53.1	53.1	53.1	76	45.7	5	10	270	0.00	29.683 
16:15	52.9	52.9	52.9	75	45.2	5	11	248	0.00	29.686 
16:20	52.6	52.6	52.6	76	45.3	4	8	248	0.00	29.686 
16:25	52.3	52.3	52.3	77	45.3	4	9	248	0.00	29.686 
16:30	52.0	52.0	52.0	77	45.0	4	9	248	0.00	29.690 
16:35	51.9	51.9	51.9	77	44.9	4	11	248	0.00	29.690 
16:40	51.7	51.7	51.7	77	44.7	5	13	248	0.00	29.690 
16:45	51.4	51.4	51.4	77	44.4	4	6	248	0.00	29.693 
16:50	51.3	51.3	51.3	77	44.3	4	12	248	0.00	29.693 
16:55	51.1	51.1	51.1	77	44.1	4	13	248	0.00	29.693 
17:00	51.0	51.0	51.0	78	44.4	3	7	248	0.00	29.704 
17:05	50.8	50.8	50.8	77	43.9	4	11	248	0.00	29.704 
17:10	50.7	50.7	50.7	76	43.4	3	7	248	0.00	29.704 
17:15	50.5	50.5	50.5	76	43.2	3	7	248	0.00	29.712 
17:20	50.2	50.2	50.2	76	42.9	3	6	248	0.00	29.712 
17:25	50.1	50.1	50.1	76	42.8	3	9	248	0.00	29.712 
17:30	49.8	49.8	49.8	76	42.5	3	7	248	0.00	29.719 
17:35	49.6	49.6	49.6	76	42.3	3	7	248	0.00	29.719 
17:40	49.5	48.3	49.5	76	42.3	4	12	248	0.00	29.719 
17:45	49.4	49.4	49.4	76	42.2	3	6	248	0.00	29.727 
17:50	49.1	49.1	49.1	77	42.2	2	5	248	0.00	29.727 
17:55	48.8	48.8	48.8	77	41.9	1	3	248	0.00	29.727 
18:00	48.6	48.6	48.6	78	42.1	2	6	248	0.00	29.730 
18:05	48.5	48.5	48.5	78	42.0	3	9	248	0.00	29.730 
18:10	48.5	48.5	48.5	78	42.0	2	5	248	0.00	29.730 
18:15	48.3	48.3	48.3	78	41.8	2	6	248	0.00	29.743 
18:20	48.2	48.2	48.2	78	41.7	2	5	248	0.00	29.743 
18:25	48.2	46.8	48.2	78	41.7	4	7	248	0.00	29.743 
18:30	48.2	48.2	48.2	79	42.0	3	7	248	0.00	29.744 
18:35	48.0	46.6	48.0	78	41.5	4	11	248	0.00	29.744 
18:40	48.0	46.6	48.0	77	41.1	4	11	248	0.00	29.744 
18:45	47.9	47.9	47.9	78	41.4	3	6	248	0.00	29.757 
18:50	47.6	47.6	47.6	78	41.1	3	6	248	0.00	29.757 
18:55	47.4	45.9	47.4	77	40.6	4	10	270	0.00	29.757 
19:00	47.3	45.8	47.3	76	40.1	4	12	270	0.00	29.763 
19:05	47.3	45.0	47.3	76	40.1	5	10	248	0.00	29.763 
19:10	47.1	45.5	47.1	76	39.9	4	8	270	0.00	29.763 
19:15	47.0	47.0	47.0	76	39.8	3	7	248	0.00	29.770 
19:20	46.7	45.1	46.7	77	39.9	4	9	270	0.00	29.770 
19:25	46.4	46.4	46.4	77	39.6	2	7	270	0.00	29.770 
19:30	46.2	46.2	46.2	78	39.7	2	7	248	0.00	29.776 
19:35	46.1	46.1	46.1	78	39.6	2	10	248	0.00	29.776 
19:40	46.1	44.4	46.1	78	39.6	4	10	270	0.00	29.776 
19:45	46.1	44.4	46.1	77	39.3	4	16	270	0.00	29.777 
19:50	46.1	46.1	46.1	77	39.3	3	10	270	0.00	29.777 
19:55	46.0	46.0	46.0	77	39.2	3	12	270	0.00	29.777 
20:00	46.0	46.0	46.0	78	39.5	3	10	248	0.00	29.778 
20:05	45.8	44.0	45.8	78	39.3	4	9	270	0.00	29.778 
20:10	45.8	45.8	45.8	78	39.3	3	7	248	0.00	29.778 
20:15	45.8	45.8	45.8	78	39.3	3	6	248	0.00	29.779 
20:20	46.0	44.2	46.0	78	39.5	4	11	270	0.00	29.779 
20:25	45.8	44.0	45.8	78	39.3	4	10	248	0.00	29.779 
20:30	45.7	45.7	45.7	79	39.6	2	6	270	0.00	29.781 
20:35	45.4	43.6	45.4	77	38.6	4	9	248	0.00	29.781 
20:40	45.4	42.8	45.4	74	37.6	5	13	270	0.00	29.781 
20:45	45.2	43.3	45.2	73	37.1	4	9	270	0.00	29.786 
20:50	45.1	43.2	45.1	73	37.0	4	11	270	0.00	29.786 
20:55	44.9	42.2	44.9	73	36.8	5	12	248	0.00	29.786 
21:00	44.8	44.8	44.8	73	36.7	3	11	248	0.00	29.785 
21:05	44.6	44.6	44.6	74	36.8	2	5	248	0.00	29.785 
21:10	44.5	44.5	44.5	75	37.1	3	7	248	0.00	29.785 
21:15	44.5	44.5	44.5	76	37.4	3	7	248	0.00	29.781 
21:20	44.6	42.6	44.6	76	37.5	4	10	270	0.00	29.781 
21:25	44.6	41.9	44.6	76	37.5	5	12	248	0.00	29.781 
21:30	44.6	42.6	44.6	76	37.5	4	9	248	0.00	29.783 
21:35	44.6	44.6	44.6	76	37.5	3	11	270	0.00	29.783 
21:40	44.5	42.5	44.5	75	37.1	4	14	248	0.00	29.783 
21:45	44.5	41.8	44.5	75	37.1	5	12	248	0.00	29.782 
21:50	44.2	42.2	44.2	76	37.1	4	10	248	0.00	29.782 
21:55	44.1	42.1	44.1	76	37.0	4	9	248	0.00	29.782 
22:00	43.9	41.8	43.9	77	37.2	4	12	248	0.00	29.791 
22:05	43.8	41.7	43.8	77	37.1	4	13	248	0.00	29.791 
22:10	43.8	41.7	43.8	77	37.1	4	11	248	0.00	29.791 
22:15	43.6	41.5	43.6	77	36.9	4	14	248	0.00	29.789 
22:20	43.6	40.7	43.6	77	36.9	5	10	248	0.00	29.789 
22:25	43.5	43.5	43.5	78	37.1	3	8	248	0.00	29.789 
22:30	43.6	41.5	43.6	78	37.2	4	10	248	0.00	29.790 
22:35	43.6	41.5	43.6	77	36.9	4	13	248	0.00	29.790 
22:40	43.6	41.5	43.6	77	36.9	4	11	248	0.00	29.790 
22:45	43.6	41.5	43.6	77	36.9	4	13	248	0.00	29.790 
22:50	43.6	43.6	43.6	78	37.2	3	7	248	0.00	29.790 
22:55	43.8	40.9	43.8	77	37.1	5	12	248	0.00	29.790 
23:00	43.8	43.8	43.8	78	37.4	3	6	248	0.00	29.787 
23:05	43.8	43.8	43.8	78	37.4	3	10	248	0.00	29.787 
23:10	43.8	41.7	43.8	77	37.1	4	11	248	0.00	29.787 
23:15	43.8	41.7	43.8	77	37.1	4	7	248	0.00	29.788 
23:20	43.8	43.8	43.8	77	37.1	3	8	248	0.00	29.788 
23:25	43.6	43.6	43.6	78	37.2	3	12	248	0.00	29.788 
23:30	43.6	43.6	43.6	78	37.2	3	8	248	0.00	29.788 
23:35	43.6	43.6	43.6	78	37.2	3	9	248	0.00	29.788 
23:40	43.6	43.6	43.6	79	37.5	3	9	270	0.00	29.788 
23:45	43.6	41.5	43.6	79	37.5	4	11	248	0.00	29.783 
23:50	43.6	43.6	43.6	79	37.5	3	6	248	0.00	29.783 
23:55	43.6	43.6	43.6	79	37.5	3	5	248	0.00	29.783 

CoCoRaHS
IN-AL-39
A2 Web Hosting
Creative Commons License
GoDaddy
Look for:

loaded 2017-10-19 20:21:42 • last modified 2010-11-18 10:43:29
Privacy PolicyDisclaimer
• wx.awcolley.com is powered by PmWiki v.2002016 •
• all content (unless otherwise noted) © 2017 A W Colley